sensor_id;sensor_type;location;lat;lon;timestamp;temperature;humidity
39815;DHT22;25495;45.948;4.568;2023-02-17T00:01:29;9.80;78.70
39815;DHT22;25495;45.948;4.568;2023-02-17T00:03:59;9.80;78.70
39815;DHT22;25495;45.948;4.568;2023-02-17T00:06:29;9.70;79.00
39815;DHT22;25495;45.948;4.568;2023-02-17T00:08:57;9.70;79.50
39815;DHT22;25495;45.948;4.568;2023-02-17T00:11:25;9.80;79.30
39815;DHT22;25495;45.948;4.568;2023-02-17T00:13:53;9.80;79.50
39815;DHT22;25495;45.948;4.568;2023-02-17T00:16:22;9.80;80.40
39815;DHT22;25495;45.948;4.568;2023-02-17T00:19:00;9.80;80.20
39815;DHT22;25495;45.948;4.568;2023-02-17T00:21:30;9.80;80.50
39815;DHT22;25495;45.948;4.568;2023-02-17T00:23:57;9.90;80.90
39815;DHT22;25495;45.948;4.568;2023-02-17T00:26:25;10.00;82.60
39815;DHT22;25495;45.948;4.568;2023-02-17T00:28:51;10.00;82.20
39815;DHT22;25495;45.948;4.568;2023-02-17T00:31:20;9.90;82.50
39815;DHT22;25495;45.948;4.568;2023-02-17T00:33:47;9.90;83.40
39815;DHT22;25495;45.948;4.568;2023-02-17T00:36:18;9.90;83.50
39815;DHT22;25495;45.948;4.568;2023-02-17T00:38:46;9.80;83.80
39815;DHT22;25495;45.948;4.568;2023-02-17T00:41:17;9.80;83.90
39815;DHT22;25495;45.948;4.568;2023-02-17T00:43:44;9.80;84.10
39815;DHT22;25495;45.948;4.568;2023-02-17T00:46:11;9.70;84.70
39815;DHT22;25495;45.948;4.568;2023-02-17T00:48:37;9.70;85.10
39815;DHT22;25495;45.948;4.568;2023-02-17T00:51:05;9.60;85.70
39815;DHT22;25495;45.948;4.568;2023-02-17T00:53:32;9.60;85.70
39815;DHT22;25495;45.948;4.568;2023-02-17T00:56:00;9.60;85.80
39815;DHT22;25495;45.948;4.568;2023-02-17T00:58:27;9.70;85.90
39815;DHT22;25495;45.948;4.568;2023-02-17T01:01:00;9.80;85.40
39815;DHT22;25495;45.948;4.568;2023-02-17T01:03:27;9.80;85.10
39815;DHT22;25495;45.948;4.568;2023-02-17T01:05:55;9.90;91.50
39815;DHT22;25495;45.948;4.568;2023-02-17T01:08:23;9.90;89.60
39815;DHT22;25495;45.948;4.568;2023-02-17T01:10:51;9.70;86.70
39815;DHT22;25495;45.948;4.568;2023-02-17T01:13:19;9.70;87.10
39815;DHT22;25495;45.948;4.568;2023-02-17T01:15:51;9.70;87.20
39815;DHT22;25495;45.948;4.568;2023-02-17T01:18:21;9.70;87.30
39815;DHT22;25495;45.948;4.568;2023-02-17T01:20:48;9.70;86.60
39815;DHT22;25495;45.948;4.568;2023-02-17T01:23:15;9.70;86.70
39815;DHT22;25495;45.948;4.568;2023-02-17T01:25:45;9.70;86.80
39815;DHT22;25495;45.948;4.568;2023-02-17T01:28:18;9.70;87.00
39815;DHT22;25495;45.948;4.568;2023-02-17T01:30:46;9.50;86.90
39815;DHT22;25495;45.948;4.568;2023-02-17T01:33:13;9.20;87.90
39815;DHT22;25495;45.948;4.568;2023-02-17T01:35:42;9.20;87.90
39815;DHT22;25495;45.948;4.568;2023-02-17T01:38:09;9.10;88.90
39815;DHT22;25495;45.948;4.568;2023-02-17T01:40:48;8.90;90.00
39815;DHT22;25495;45.948;4.568;2023-02-17T01:43:16;9.10;89.90
39815;DHT22;25495;45.948;4.568;2023-02-17T01:45:51;9.20;89.50
39815;DHT22;25495;45.948;4.568;2023-02-17T01:48:30;9.30;89.00
39815;DHT22;25495;45.948;4.568;2023-02-17T01:51:14;9.40;89.40
39815;DHT22;25495;45.948;4.568;2023-02-17T01:56:18;9.20;89.60
39815;DHT22;25495;45.948;4.568;2023-02-17T01:58:49;9.20;90.00
39815;DHT22;25495;45.948;4.568;2023-02-17T02:01:20;9.10;89.40
39815;DHT22;25495;45.948;4.568;2023-02-17T02:03:50;9.10;89.10
39815;DHT22;25495;45.948;4.568;2023-02-17T02:06:22;9.20;87.80
39815;DHT22;25495;45.948;4.568;2023-02-17T02:09:11;9.30;88.10
39815;DHT22;25495;45.948;4.568;2023-02-17T02:11:41;9.20;88.80
39815;DHT22;25495;45.948;4.568;2023-02-17T02:14:09;9.30;89.00
39815;DHT22;25495;45.948;4.568;2023-02-17T02:24:45;9.00;91.70
39815;DHT22;25495;45.948;4.568;2023-02-17T02:27:44;8.90;92.10
39815;DHT22;25495;45.948;4.568;2023-02-17T02:33:28;8.90;91.80
39815;DHT22;25495;45.948;4.568;2023-02-17T02:36:11;8.90;91.20
39815;DHT22;25495;45.948;4.568;2023-02-17T02:38:52;9.00;90.50
39815;DHT22;25495;45.948;4.568;2023-02-17T02:41:32;9.10;90.60
39815;DHT22;25495;45.948;4.568;2023-02-17T02:44:06;9.20;90.90
39815;DHT22;25495;45.948;4.568;2023-02-17T02:46:33;9.10;91.10
39815;DHT22;25495;45.948;4.568;2023-02-17T02:49:01;9.10;91.50
39815;DHT22;25495;45.948;4.568;2023-02-17T03:02:35;8.60;92.20
39815;DHT22;25495;45.948;4.568;2023-02-17T03:05:29;8.40;92.30
39815;DHT22;25495;45.948;4.568;2023-02-17T03:08:18;8.30;93.70
39815;DHT22;25495;45.948;4.568;2023-02-17T03:10:50;8.20;94.60
39815;DHT22;25495;45.948;4.568;2023-02-17T03:13:18;8.30;94.60
39815;DHT22;25495;45.948;4.568;2023-02-17T03:15:48;8.20;94.60
39815;DHT22;25495;45.948;4.568;2023-02-17T03:18:16;8.30;95.00
39815;DHT22;25495;45.948;4.568;2023-02-17T03:20:49;8.60;94.90
39815;DHT22;25495;45.948;4.568;2023-02-17T03:23:17;8.70;95.30
39815;DHT22;25495;45.948;4.568;2023-02-17T03:25:44;8.90;95.30
39815;DHT22;25495;45.948;4.568;2023-02-17T03:28:13;8.90;95.50
39815;DHT22;25495;45.948;4.568;2023-02-17T03:30:40;9.00;96.40
39815;DHT22;25495;45.948;4.568;2023-02-17T03:33:08;9.00;97.50
39815;DHT22;25495;45.948;4.568;2023-02-17T03:35:34;8.80;98.30
39815;DHT22;25495;45.948;4.568;2023-02-17T03:38:02;8.60;97.80
39815;DHT22;25495;45.948;4.568;2023-02-17T03:40:30;8.80;98.00
39815;DHT22;25495;45.948;4.568;2023-02-17T03:43:00;9.00;98.20
39815;DHT22;25495;45.948;4.568;2023-02-17T03:45:27;8.70;98.20
39815;DHT22;25495;45.948;4.568;2023-02-17T03:47:55;8.60;99.00
39815;DHT22;25495;45.948;4.568;2023-02-17T03:50:22;8.60;99.80
39815;DHT22;25495;45.948;4.568;2023-02-17T03:52:49;8.70;99.90
39815;DHT22;25495;45.948;4.568;2023-02-17T03:55:16;8.70;99.90
39815;DHT22;25495;45.948;4.568;2023-02-17T03:57:46;8.70;99.90
39815;DHT22;25495;45.948;4.568;2023-02-17T04:00:13;8.70;99.90
39815;DHT22;25495;45.948;4.568;2023-02-17T04:02:40;9.00;99.90
39815;DHT22;25495;45.948;4.568;2023-02-17T04:05:07;8.90;99.90
39815;DHT22;25495;45.948;4.568;2023-02-17T04:07:36;8.90;99.90
39815;DHT22;25495;45.948;4.568;2023-02-17T04:10:03;8.90;99.90
39815;DHT22;25495;45.948;4.568;2023-02-17T04:12:30;8.90;99.90
39815;DHT22;25495;45.948;4.568;2023-02-17T04:14:58;8.90;99.90
39815;DHT22;25495;45.948;4.568;2023-02-17T04:17:27;8.90;99.90
39815;DHT22;25495;45.948;4.568;2023-02-17T04:19:53;8.90;99.90
39815;DHT22;25495;45.948;4.568;2023-02-17T04:22:22;8.80;99.90
39815;DHT22;25495;45.948;4.568;2023-02-17T04:24:51;9.00;99.90
39815;DHT22;25495;45.948;4.568;2023-02-17T04:27:19;8.90;99.90
39815;DHT22;25495;45.948;4.568;2023-02-17T04:29:48;8.80;99.90
39815;DHT22;25495;45.948;4.568;2023-02-17T04:32:15;8.50;99.90
39815;DHT22;25495;45.948;4.568;2023-02-17T04:34:44;8.60;99.90
39815;DHT22;25495;45.948;4.568;2023-02-17T04:37:14;8.80;99.90
39815;DHT22;25495;45.948;4.568;2023-02-17T04:39:42;8.90;99.90
39815;DHT22;25495;45.948;4.568;2023-02-17T04:42:10;9.00;99.90
39815;DHT22;25495;45.948;4.568;2023-02-17T04:44:37;9.00;99.90
39815;DHT22;25495;45.948;4.568;2023-02-17T04:47:04;9.10;99.90
39815;DHT22;25495;45.948;4.568;2023-02-17T04:49:33;9.10;99.90
39815;DHT22;25495;45.948;4.568;2023-02-17T04:52:01;9.20;99.90
39815;DHT22;25495;45.948;4.568;2023-02-17T04:54:28;9.30;99.90
39815;DHT22;25495;45.948;4.568;2023-02-17T04:56:55;9.30;99.90
39815;DHT22;25495;45.948;4.568;2023-02-17T04:59:23;9.40;99.90
39815;DHT22;25495;45.948;4.568;2023-02-17T05:01:49;9.30;99.90
39815;DHT22;25495;45.948;4.568;2023-02-17T05:04:17;9.20;99.90
39815;DHT22;25495;45.948;4.568;2023-02-17T05:06:44;9.10;99.90
39815;DHT22;25495;45.948;4.568;2023-02-17T05:09:11;9.20;99.90
39815;DHT22;25495;45.948;4.568;2023-02-17T05:11:41;9.30;99.90
39815;DHT22;25495;45.948;4.568;2023-02-17T05:14:10;9.30;99.90
39815;DHT22;25495;45.948;4.568;2023-02-17T05:16:37;9.30;99.90
39815;DHT22;25495;45.948;4.568;2023-02-17T05:19:05;9.20;99.90
39815;DHT22;25495;45.948;4.568;2023-02-17T05:21:32;8.90;99.90
39815;DHT22;25495;45.948;4.568;2023-02-17T05:23:59;8.80;99.90
39815;DHT22;25495;45.948;4.568;2023-02-17T05:26:27;8.80;99.90
39815;DHT22;25495;45.948;4.568;2023-02-17T05:28:54;8.60;99.90
39815;DHT22;25495;45.948;4.568;2023-02-17T05:31:24;8.50;99.90
39815;DHT22;25495;45.948;4.568;2023-02-17T05:33:53;8.50;99.90
39815;DHT22;25495;45.948;4.568;2023-02-17T05:36:20;8.40;99.90
39815;DHT22;25495;45.948;4.568;2023-02-17T05:38:47;8.40;99.90
39815;DHT22;25495;45.948;4.568;2023-02-17T05:41:17;8.50;99.90
39815;DHT22;25495;45.948;4.568;2023-02-17T05:43:44;8.50;99.90
39815;DHT22;25495;45.948;4.568;2023-02-17T05:46:15;8.60;99.90
39815;DHT22;25495;45.948;4.568;2023-02-17T05:48:42;8.70;99.90
39815;DHT22;25495;45.948;4.568;2023-02-17T05:51:09;8.30;99.90
39815;DHT22;25495;45.948;4.568;2023-02-17T05:53:39;8.10;99.90
39815;DHT22;25495;45.948;4.568;2023-02-17T05:56:06;8.30;99.90
39815;DHT22;25495;45.948;4.568;2023-02-17T05:58:33;8.20;99.90
39815;DHT22;25495;45.948;4.568;2023-02-17T06:01:00;8.20;99.90
39815;DHT22;25495;45.948;4.568;2023-02-17T06:03:28;8.40;99.90
39815;DHT22;25495;45.948;4.568;2023-02-17T06:05:55;8.70;99.90
39815;DHT22;25495;45.948;4.568;2023-02-17T06:08:21;8.80;99.90
39815;DHT22;25495;45.948;4.568;2023-02-17T06:10:48;8.60;99.90
39815;DHT22;25495;45.948;4.568;2023-02-17T06:13:15;8.60;99.90
39815;DHT22;25495;45.948;4.568;2023-02-17T06:15:42;8.60;99.90
39815;DHT22;25495;45.948;4.568;2023-02-17T06:18:10;8.70;99.90
39815;DHT22;25495;45.948;4.568;2023-02-17T06:20:38;8.80;99.90
39815;DHT22;25495;45.948;4.568;2023-02-17T06:23:05;8.90;99.90
39815;DHT22;25495;45.948;4.568;2023-02-17T06:25:34;8.80;99.90
39815;DHT22;25495;45.948;4.568;2023-02-17T06:28:02;8.70;99.90
39815;DHT22;25495;45.948;4.568;2023-02-17T06:30:31;8.60;99.90
39815;DHT22;25495;45.948;4.568;2023-02-17T06:32:58;8.50;99.90
39815;DHT22;25495;45.948;4.568;2023-02-17T06:35:25;8.50;99.90
39815;DHT22;25495;45.948;4.568;2023-02-17T06:37:52;8.40;99.90
39815;DHT22;25495;45.948;4.568;2023-02-17T06:40:20;8.30;99.90
39815;DHT22;25495;45.948;4.568;2023-02-17T06:42:47;8.30;99.90
39815;DHT22;25495;45.948;4.568;2023-02-17T06:45:14;8.30;99.90
39815;DHT22;25495;45.948;4.568;2023-02-17T06:47:41;8.20;99.90
39815;DHT22;25495;45.948;4.568;2023-02-17T06:50:09;8.40;99.90
39815;DHT22;25495;45.948;4.568;2023-02-17T06:52:37;8.60;99.90
39815;DHT22;25495;45.948;4.568;2023-02-17T06:55:04;8.60;99.90
39815;DHT22;25495;45.948;4.568;2023-02-17T06:57:31;8.70;99.90
39815;DHT22;25495;45.948;4.568;2023-02-17T06:59:58;8.80;99.90
39815;DHT22;25495;45.948;4.568;2023-02-17T07:02:26;8.90;99.90
39815;DHT22;25495;45.948;4.568;2023-02-17T07:04:52;8.90;99.90
39815;DHT22;25495;45.948;4.568;2023-02-17T07:07:19;9.00;99.90
39815;DHT22;25495;45.948;4.568;2023-02-17T07:09:46;9.00;99.90
39815;DHT22;25495;45.948;4.568;2023-02-17T07:12:13;8.80;99.90
39815;DHT22;25495;45.948;4.568;2023-02-17T07:14:40;8.90;99.90
39815;DHT22;25495;45.948;4.568;2023-02-17T07:17:07;9.00;99.90
39815;DHT22;25495;45.948;4.568;2023-02-17T07:19:34;9.10;99.90
39815;DHT22;25495;45.948;4.568;2023-02-17T07:22:01;9.10;99.90
39815;DHT22;25495;45.948;4.568;2023-02-17T07:24:29;9.20;99.90
39815;DHT22;25495;45.948;4.568;2023-02-17T07:26:56;9.20;99.90
39815;DHT22;25495;45.948;4.568;2023-02-17T07:29:23;9.20;99.90
39815;DHT22;25495;45.948;4.568;2023-02-17T07:31:50;9.20;99.90
39815;DHT22;25495;45.948;4.568;2023-02-17T07:34:18;9.20;99.90
39815;DHT22;25495;45.948;4.568;2023-02-17T07:41:41;10.10;99.90
39815;DHT22;25495;45.948;4.568;2023-02-17T07:44:09;9.70;99.90
39815;DHT22;25495;45.948;4.568;2023-02-17T07:46:40;9.20;99.90
39815;DHT22;25495;45.948;4.568;2023-02-17T07:49:08;9.20;99.90
39815;DHT22;25495;45.948;4.568;2023-02-17T07:51:36;9.30;99.90
39815;DHT22;25495;45.948;4.568;2023-02-17T07:54:03;9.50;99.90
39815;DHT22;25495;45.948;4.568;2023-02-17T07:56:31;9.60;99.90
39815;DHT22;25495;45.948;4.568;2023-02-17T07:59:00;9.80;99.90
39815;DHT22;25495;45.948;4.568;2023-02-17T08:01:26;9.90;99.90
39815;DHT22;25495;45.948;4.568;2023-02-17T08:03:54;9.90;99.90
39815;DHT22;25495;45.948;4.568;2023-02-17T08:06:23;9.90;99.90
39815;DHT22;25495;45.948;4.568;2023-02-17T08:08:51;10.20;99.90
39815;DHT22;25495;45.948;4.568;2023-02-17T08:11:37;10.10;99.90
39815;DHT22;25495;45.948;4.568;2023-02-17T08:14:25;10.30;99.90
39815;DHT22;25495;45.948;4.568;2023-02-17T08:16:52;10.00;99.90
39815;DHT22;25495;45.948;4.568;2023-02-17T08:19:22;10.30;99.90
39815;DHT22;25495;45.948;4.568;2023-02-17T08:21:52;10.40;99.90
39815;DHT22;25495;45.948;4.568;2023-02-17T08:24:19;10.50;99.90
39815;DHT22;25495;45.948;4.568;2023-02-17T08:26:50;10.40;99.90
39815;DHT22;25495;45.948;4.568;2023-02-17T08:29:17;10.30;99.90
39815;DHT22;25495;45.948;4.568;2023-02-17T08:31:49;10.10;99.90
39815;DHT22;25495;45.948;4.568;2023-02-17T08:34:17;9.90;99.90
39815;DHT22;25495;45.948;4.568;2023-02-17T08:36:44;9.90;99.90
39815;DHT22;25495;45.948;4.568;2023-02-17T08:39:14;9.90;99.90
39815;DHT22;25495;45.948;4.568;2023-02-17T08:41:42;10.10;99.90
39815;DHT22;25495;45.948;4.568;2023-02-17T08:44:13;9.90;99.90
39815;DHT22;25495;45.948;4.568;2023-02-17T08:46:40;9.90;99.90
39815;DHT22;25495;45.948;4.568;2023-02-17T08:49:07;9.90;99.90
39815;DHT22;25495;45.948;4.568;2023-02-17T08:51:35;10.00;99.90
39815;DHT22;25495;45.948;4.568;2023-02-17T08:54:04;10.00;99.90
39815;DHT22;25495;45.948;4.568;2023-02-17T08:56:32;10.20;99.90
39815;DHT22;25495;45.948;4.568;2023-02-17T08:59:01;10.60;99.90
39815;DHT22;25495;45.948;4.568;2023-02-17T09:01:29;11.00;99.90
39815;DHT22;25495;45.948;4.568;2023-02-17T09:04:00;11.20;99.90
39815;DHT22;25495;45.948;4.568;2023-02-17T09:06:37;11.40;99.90
39815;DHT22;25495;45.948;4.568;2023-02-17T09:09:13;11.50;99.90
39815;DHT22;25495;45.948;4.568;2023-02-17T09:11:44;11.60;99.90
39815;DHT22;25495;45.948;4.568;2023-02-17T09:14:12;11.70;99.90
39815;DHT22;25495;45.948;4.568;2023-02-17T09:16:41;11.70;99.90
39815;DHT22;25495;45.948;4.568;2023-02-17T09:19:13;11.80;99.90
39815;DHT22;25495;45.948;4.568;2023-02-17T09:21:40;11.90;99.90
39815;DHT22;25495;45.948;4.568;2023-02-17T09:24:07;12.00;99.90
39815;DHT22;25495;45.948;4.568;2023-02-17T09:26:35;12.00;99.90
39815;DHT22;25495;45.948;4.568;2023-02-17T09:29:06;12.00;99.90
39815;DHT22;25495;45.948;4.568;2023-02-17T09:31:35;11.90;99.90
39815;DHT22;25495;45.948;4.568;2023-02-17T09:34:03;12.10;99.90
39815;DHT22;25495;45.948;4.568;2023-02-17T09:36:39;12.20;99.90
39815;DHT22;25495;45.948;4.568;2023-02-17T09:39:06;12.20;99.90
39815;DHT22;25495;45.948;4.568;2023-02-17T09:41:49;12.20;99.90
39815;DHT22;25495;45.948;4.568;2023-02-17T09:44:25;12.20;99.90
39815;DHT22;25495;45.948;4.568;2023-02-17T09:47:06;12.30;99.90
39815;DHT22;25495;45.948;4.568;2023-02-17T09:49:43;12.30;99.90
39815;DHT22;25495;45.948;4.568;2023-02-17T09:55:06;12.40;99.90
39815;DHT22;25495;45.948;4.568;2023-02-17T09:58:10;12.40;99.90
39815;DHT22;25495;45.948;4.568;2023-02-17T10:00:48;12.40;99.90
39815;DHT22;25495;45.948;4.568;2023-02-17T10:09:03;12.40;99.90
39815;DHT22;25495;45.948;4.568;2023-02-17T10:11:33;12.50;99.90
39815;DHT22;25495;45.948;4.568;2023-02-17T10:14:02;12.60;99.90
39815;DHT22;25495;45.948;4.568;2023-02-17T10:16:50;12.70;99.90
39815;DHT22;25495;45.948;4.568;2023-02-17T10:19:20;12.70;99.90
39815;DHT22;25495;45.948;4.568;2023-02-17T10:22:10;12.70;99.90
39815;DHT22;25495;45.948;4.568;2023-02-17T10:24:42;12.60;99.90
39815;DHT22;25495;45.948;4.568;2023-02-17T10:33:36;12.80;99.90
39815;DHT22;25495;45.948;4.568;2023-02-17T10:36:33;12.60;99.90
39815;DHT22;25495;45.948;4.568;2023-02-17T10:42:30;12.70;99.90
39815;DHT22;25495;45.948;4.568;2023-02-17T10:45:20;12.80;99.90
39815;DHT22;25495;45.948;4.568;2023-02-17T10:48:01;12.80;99.90
39815;DHT22;25495;45.948;4.568;2023-02-17T10:50:29;13.00;99.90
39815;DHT22;25495;45.948;4.568;2023-02-17T10:52:57;13.20;99.90
39815;DHT22;25495;45.948;4.568;2023-02-17T10:55:30;13.40;99.90
39815;DHT22;25495;45.948;4.568;2023-02-17T10:58:17;13.80;99.90
39815;DHT22;25495;45.948;4.568;2023-02-17T11:00:48;14.00;99.90
39815;DHT22;25495;45.948;4.568;2023-02-17T11:03:24;14.30;99.90
39815;DHT22;25495;45.948;4.568;2023-02-17T11:05:59;14.30;99.90
39815;DHT22;25495;45.948;4.568;2023-02-17T11:08:40;14.30;99.60
39815;DHT22;25495;45.948;4.568;2023-02-17T11:11:36;14.20;99.90
39815;DHT22;25495;45.948;4.568;2023-02-17T11:14:17;14.10;99.80
39815;DHT22;25495;45.948;4.568;2023-02-17T11:16:56;14.00;99.90
39815;DHT22;25495;45.948;4.568;2023-02-17T11:19:26;14.10;99.90
39815;DHT22;25495;45.948;4.568;2023-02-17T11:21:56;13.90;99.80
39815;DHT22;25495;45.948;4.568;2023-02-17T11:24:25;14.10;99.90
39815;DHT22;25495;45.948;4.568;2023-02-17T11:27:02;14.00;99.90
39815;DHT22;25495;45.948;4.568;2023-02-17T11:29:30;14.10;99.90
39815;DHT22;25495;45.948;4.568;2023-02-17T11:32:03;14.10;99.90
39815;DHT22;25495;45.948;4.568;2023-02-17T11:34:34;13.90;99.90
39815;DHT22;25495;45.948;4.568;2023-02-17T11:39:41;13.60;99.90
39815;DHT22;25495;45.948;4.568;2023-02-17T11:42:21;13.90;99.90
39815;DHT22;25495;45.948;4.568;2023-02-17T11:44:49;14.10;99.90
39815;DHT22;25495;45.948;4.568;2023-02-17T11:47:42;14.00;99.90
39815;DHT22;25495;45.948;4.568;2023-02-17T11:56:22;13.70;99.90
39815;DHT22;25495;45.948;4.568;2023-02-17T11:59:16;13.80;99.90
39815;DHT22;25495;45.948;4.568;2023-02-17T12:04:59;14.70;99.90
39815;DHT22;25495;45.948;4.568;2023-02-17T12:07:38;14.90;99.90
39815;DHT22;25495;45.948;4.568;2023-02-17T12:13:14;15.00;99.90
39815;DHT22;25495;45.948;4.568;2023-02-17T12:16:08;15.10;99.90
39815;DHT22;25495;45.948;4.568;2023-02-17T12:19:01;15.20;99.70
39815;DHT22;25495;45.948;4.568;2023-02-17T12:21:38;15.10;98.70
39815;DHT22;25495;45.948;4.568;2023-02-17T12:24:27;14.40;98.90
39815;DHT22;25495;45.948;4.568;2023-02-17T12:33:26;14.10;99.90
39815;DHT22;25495;45.948;4.568;2023-02-17T12:36:03;14.00;99.90
39815;DHT22;25495;45.948;4.568;2023-02-17T12:38:46;14.10;99.90
39815;DHT22;25495;45.948;4.568;2023-02-17T12:41:24;14.20;99.90
39815;DHT22;25495;45.948;4.568;2023-02-17T12:43:54;14.40;99.90
39815;DHT22;25495;45.948;4.568;2023-02-17T12:46:42;14.20;99.90
39815;DHT22;25495;45.948;4.568;2023-02-17T12:49:18;14.10;99.90
39815;DHT22;25495;45.948;4.568;2023-02-17T12:57:07;14.30;99.90
39815;DHT22;25495;45.948;4.568;2023-02-17T12:59:44;14.00;99.90
39815;DHT22;25495;45.948;4.568;2023-02-17T13:02:22;14.00;99.90
39815;DHT22;25495;45.948;4.568;2023-02-17T13:04:52;13.80;99.90
39815;DHT22;25495;45.948;4.568;2023-02-17T13:18:54;13.70;99.90
39815;DHT22;25495;45.948;4.568;2023-02-17T13:21:37;13.80;99.90
39815;DHT22;25495;45.948;4.568;2023-02-17T13:24:15;13.80;99.90
39815;DHT22;25495;45.948;4.568;2023-02-17T13:26:56;13.80;99.90
39815;DHT22;25495;45.948;4.568;2023-02-17T13:29:33;13.80;99.90
39815;DHT22;25495;45.948;4.568;2023-02-17T13:32:07;13.80;99.90
39815;DHT22;25495;45.948;4.568;2023-02-17T13:34:36;14.30;99.90
39815;DHT22;25495;45.948;4.568;2023-02-17T13:39:53;13.90;99.90
39815;DHT22;25495;45.948;4.568;2023-02-17T13:42:37;14.20;99.90
39815;DHT22;25495;45.948;4.568;2023-02-17T13:47:42;14.20;99.90
39815;DHT22;25495;45.948;4.568;2023-02-17T13:50:25;14.20;99.90
39815;DHT22;25495;45.948;4.568;2023-02-17T13:52:53;14.20;99.90
39815;DHT22;25495;45.948;4.568;2023-02-17T13:55:19;14.40;99.90
39815;DHT22;25495;45.948;4.568;2023-02-17T13:57:54;14.50;99.90
39815;DHT22;25495;45.948;4.568;2023-02-17T14:00:26;14.20;99.90
39815;DHT22;25495;45.948;4.568;2023-02-17T14:03:04;14.20;99.90
39815;DHT22;25495;45.948;4.568;2023-02-17T14:05:43;14.10;99.90
39815;DHT22;25495;45.948;4.568;2023-02-17T14:08:31;13.90;99.90
39815;DHT22;25495;45.948;4.568;2023-02-17T14:11:13;14.00;99.90
39815;DHT22;25495;45.948;4.568;2023-02-17T14:13:42;13.70;99.90
39815;DHT22;25495;45.948;4.568;2023-02-17T14:19:08;13.90;99.90
39815;DHT22;25495;45.948;4.568;2023-02-17T14:24:37;13.70;99.90
39815;DHT22;25495;45.948;4.568;2023-02-17T16:29:19;12.90;99.90
39815;DHT22;25495;45.948;4.568;2023-02-17T16:31:46;13.00;99.90
39815;DHT22;25495;45.948;4.568;2023-02-17T16:34:16;13.00;99.90
39815;DHT22;25495;45.948;4.568;2023-02-17T16:36:43;13.00;99.90
39815;DHT22;25495;45.948;4.568;2023-02-17T16:39:15;13.00;99.90
39815;DHT22;25495;45.948;4.568;2023-02-17T16:41:43;13.00;99.90
39815;DHT22;25495;45.948;4.568;2023-02-17T16:44:13;13.10;99.90
39815;DHT22;25495;45.948;4.568;2023-02-17T16:46:51;13.60;99.90
39815;DHT22;25495;45.948;4.568;2023-02-17T16:49:26;13.60;99.90
39815;DHT22;25495;45.948;4.568;2023-02-17T16:51:59;13.30;99.90
39815;DHT22;25495;45.948;4.568;2023-02-17T16:54:25;13.10;99.90
39815;DHT22;25495;45.948;4.568;2023-02-17T16:56:52;12.90;99.90
39815;DHT22;25495;45.948;4.568;2023-02-17T16:59:20;12.80;99.90
39815;DHT22;25495;45.948;4.568;2023-02-17T17:01:46;12.70;99.90
39815;DHT22;25495;45.948;4.568;2023-02-17T17:04:13;12.60;99.90
39815;DHT22;25495;45.948;4.568;2023-02-17T17:06:45;12.40;99.90
39815;DHT22;25495;45.948;4.568;2023-02-17T17:09:22;12.50;99.90
39815;DHT22;25495;45.948;4.568;2023-02-17T17:11:49;12.60;99.90
39815;DHT22;25495;45.948;4.568;2023-02-17T17:14:15;12.60;99.90
39815;DHT22;25495;45.948;4.568;2023-02-17T17:16:46;12.50;99.90
39815;DHT22;25495;45.948;4.568;2023-02-17T17:19:12;12.50;99.90
39815;DHT22;25495;45.948;4.568;2023-02-17T17:21:38;12.50;99.90
39815;DHT22;25495;45.948;4.568;2023-02-17T17:24:04;12.40;99.90
39815;DHT22;25495;45.948;4.568;2023-02-17T17:26:39;12.40;99.90
39815;DHT22;25495;45.948;4.568;2023-02-17T17:29:11;12.30;99.90
39815;DHT22;25495;45.948;4.568;2023-02-17T17:31:37;12.20;99.90
39815;DHT22;25495;45.948;4.568;2023-02-17T17:34:03;12.10;99.90
39815;DHT22;25495;45.948;4.568;2023-02-17T17:36:43;12.10;99.90
39815;DHT22;25495;45.948;4.568;2023-02-17T17:39:20;12.10;99.90
39815;DHT22;25495;45.948;4.568;2023-02-17T17:41:47;12.10;99.90
39815;DHT22;25495;45.948;4.568;2023-02-17T17:44:13;12.20;99.90
39815;DHT22;25495;45.948;4.568;2023-02-17T17:46:40;12.20;99.90
39815;DHT22;25495;45.948;4.568;2023-02-17T17:49:07;12.10;99.90
39815;DHT22;25495;45.948;4.568;2023-02-17T17:51:36;12.00;99.90
39815;DHT22;25495;45.948;4.568;2023-02-17T17:54:02;12.00;99.90
39815;DHT22;25495;45.948;4.568;2023-02-17T17:56:36;11.90;99.90
39815;DHT22;25495;45.948;4.568;2023-02-17T17:59:04;11.90;99.90
39815;DHT22;25495;45.948;4.568;2023-02-17T18:01:30;11.90;99.90
39815;DHT22;25495;45.948;4.568;2023-02-17T18:03:56;11.90;99.90
39815;DHT22;25495;45.948;4.568;2023-02-17T18:06:28;11.90;99.90
39815;DHT22;25495;45.948;4.568;2023-02-17T18:08:59;11.90;99.90
39815;DHT22;25495;45.948;4.568;2023-02-17T18:11:26;12.00;99.90
39815;DHT22;25495;45.948;4.568;2023-02-17T18:13:53;11.80;99.90
39815;DHT22;25495;45.948;4.568;2023-02-17T18:16:23;11.80;99.90
39815;DHT22;25495;45.948;4.568;2023-02-17T18:18:50;11.70;99.90
39815;DHT22;25495;45.948;4.568;2023-02-17T18:21:16;11.60;99.90
39815;DHT22;25495;45.948;4.568;2023-02-17T18:23:42;11.60;99.90
39815;DHT22;25495;45.948;4.568;2023-02-17T18:26:08;11.50;99.90
39815;DHT22;25495;45.948;4.568;2023-02-17T18:28:34;11.50;99.90
39815;DHT22;25495;45.948;4.568;2023-02-17T18:31:06;11.40;99.90
39815;DHT22;25495;45.948;4.568;2023-02-17T18:33:32;11.40;99.90
39815;DHT22;25495;45.948;4.568;2023-02-17T18:36:06;11.30;99.90
39815;DHT22;25495;45.948;4.568;2023-02-17T18:38:32;11.30;99.90
39815;DHT22;25495;45.948;4.568;2023-02-17T18:40:57;11.20;99.90
39815;DHT22;25495;45.948;4.568;2023-02-17T18:43:23;11.20;99.90
39815;DHT22;25495;45.948;4.568;2023-02-17T18:45:49;11.30;99.90
39815;DHT22;25495;45.948;4.568;2023-02-17T18:48:15;11.30;99.90
39815;DHT22;25495;45.948;4.568;2023-02-17T18:50:40;11.30;99.90
39815;DHT22;25495;45.948;4.568;2023-02-17T18:53:06;11.20;99.90
39815;DHT22;25495;45.948;4.568;2023-02-17T18:55:35;11.20;99.90
39815;DHT22;25495;45.948;4.568;2023-02-17T18:58:01;11.10;99.90
39815;DHT22;25495;45.948;4.568;2023-02-17T19:00:27;11.20;99.90
39815;DHT22;25495;45.948;4.568;2023-02-17T19:02:53;11.20;99.90
39815;DHT22;25495;45.948;4.568;2023-02-17T19:05:19;11.20;99.90
39815;DHT22;25495;45.948;4.568;2023-02-17T19:07:45;11.20;99.90
39815;DHT22;25495;45.948;4.568;2023-02-17T19:10:11;11.20;99.90
39815;DHT22;25495;45.948;4.568;2023-02-17T19:12:37;11.20;99.90
39815;DHT22;25495;45.948;4.568;2023-02-17T19:15:04;11.30;99.90
39815;DHT22;25495;45.948;4.568;2023-02-17T19:17:30;11.20;99.90
39815;DHT22;25495;45.948;4.568;2023-02-17T19:19:56;11.30;99.90
39815;DHT22;25495;45.948;4.568;2023-02-17T19:22:22;11.30;99.90
39815;DHT22;25495;45.948;4.568;2023-02-17T19:24:52;11.40;99.90
39815;DHT22;25495;45.948;4.568;2023-02-17T19:27:18;11.50;99.90
39815;DHT22;25495;45.948;4.568;2023-02-17T19:29:45;11.40;99.90
39815;DHT22;25495;45.948;4.568;2023-02-17T19:32:11;11.40;99.90
39815;DHT22;25495;45.948;4.568;2023-02-17T19:34:37;11.10;99.90
39815;DHT22;25495;45.948;4.568;2023-02-17T19:37:03;11.00;99.90
39815;DHT22;25495;45.948;4.568;2023-02-17T19:39:32;11.00;99.90